Map

Track Data

SID SEASON NUMBER BASIN SUBBASIN NAME ISO_TIME NATURE LAT LON WMO_WIND WMO_PRES WMO_AGENCY TRACK_TYPE DIST2LAND LANDFALL IFLAG USA_AGENCY USA_ATCF_ID USA_LAT USA_LON USA_RECORD USA_STATUS USA_WIND USA_PRES USA_SSHS USA_R34_NE USA_R34_SE USA_R34_SW USA_R34_NW USA_R50_NE USA_R50_SE USA_R50_SW USA_R50_NW USA_R64_NE USA_R64_SE USA_R64_SW USA_R64_NW USA_POCI USA_ROCI USA_RMW USA_EYE TOKYO_LAT TOKYO_LON TOKYO_GRADE TOKYO_WIND TOKYO_PRES TOKYO_R50_DIR TOKYO_R50_LONG TOKYO_R50_SHORT TOKYO_R30_DIR TOKYO_R30_LONG TOKYO_R30_SHORT TOKYO_LAND CMA_LAT CMA_LON CMA_CAT CMA_WIND CMA_PRES HKO_LAT HKO_LON HKO_CAT HKO_WIND HKO_PRES NEWDELHI_LAT NEWDELHI_LON NEWDELHI_GRADE NEWDELHI_WIND NEWDELHI_PRES NEWDELHI_CI NEWDELHI_DP NEWDELHI_POCI REUNION_LAT REUNION_LON REUNION_TYPE REUNION_WIND REUNION_PRES REUNION_TNUM REUNION_CI REUNION_RMW REUNION_R34_NE REUNION_R34_SE REUNION_R34_SW REUNION_R34_NW REUNION_R50_NE REUNION_R50_SE REUNION_R50_SW REUNION_R50_NW REUNION_R64_NE REUNION_R64_SE REUNION_R64_SW REUNION_R64_NW BOM_LAT BOM_LON BOM_TYPE BOM_WIND BOM_PRES BOM_TNUM BOM_CI BOM_RMW BOM_R34_NE BOM_R34_SE BOM_R34_SW BOM_R34_NW BOM_R50_NE BOM_R50_SE BOM_R50_SW BOM_R50_NW BOM_R64_NE BOM_R64_SE BOM_R64_SW BOM_R64_NW BOM_ROCI BOM_POCI BOM_EYE BOM_POS_METHOD BOM_PRES_METHOD NADI_LAT NADI_LON NADI_CAT NADI_WIND NADI_PRES WELLINGTON_LAT WELLINGTON_LON WELLINGTON_WIND WELLINGTON_PRES DS824_LAT DS824_LON DS824_STAGE DS824_WIND DS824_PRES TD9636_LAT TD9636_LON TD9636_STAGE TD9636_WIND TD9636_PRES TD9635_LAT TD9635_LON TD9635_WIND TD9635_PRES TD9635_ROCI NEUMANN_LAT NEUMANN_LON NEUMANN_CLASS NEUMANN_WIND NEUMANN_PRES MLC_LAT MLC_LON MLC_CLASS MLC_WIND MLC_PRES USA_GUST BOM_GUST BOM_GUST_PER REUNION_GUST REUNION_GUST_PER USA_SEAHGT USA_SEARAD_NE USA_SEARAD_SE USA_SEARAD_SW USA_SEARAD_NW STORM_SPEED STORM_DIR
1907313N12062 1907 60 NI AS NOT_NAMED 1907-11-09 00:00:00 TS 12.3000 62.0000 main 815 782 _________O____ -1 12.3000 62.0000 TC 34 6 283
1907313N12062 1907 60 NI AS NOT_NAMED 1907-11-09 03:00:00 TS 12.3668 61.6934 main 782 738 _________PO___ -1 12.4002 61.5401 TC 36 12.3000 62.0000 2 7 283
1907313N12062 1907 60 NI AS NOT_NAMED 1907-11-09 06:00:00 TS 12.4539 61.2950 main 738 695 _________OP___ -1 12.5000 61.1000 TC 39 12.3847 61.5874 2 8 283
1907313N12062 1907 60 NI AS NOT_NAMED 1907-11-09 09:00:00 TS 12.5465 60.8971 main 695 651 _________PP___ -1 12.5999 60.6925 TC 42 12.4752 61.1698 2 8 284
1907313N12062 1907 60 NI AS NOT_NAMED 1907-11-09 12:00:00 TS 12.6391 60.5212 main 651 608 _________OP___ -1 12.7000 60.3000 TC 45 12.5782 60.7423 2 8 284
1907313N12062 1907 60 NI AS NOT_NAMED 1907-11-09 15:00:00 TS 12.7425 60.0999 main 608 564 _________PO___ -1 12.7849 59.8999 TC 45 12.7000 60.3000 3 9 286
1907313N12062 1907 60 NI AS NOT_NAMED 1907-11-09 18:00:00 TS 12.8720 59.6722 main 565 522 _________OP___ -1 12.9000 59.5000 TC 45 12.8439 59.8443 3 9 290
1907313N12062 1907 60 NI AS NOT_NAMED 1907-11-09 21:00:00 TS 13.0502 59.2290 main 512 481 _________PP___ -1 13.1001 59.0552 TC 45 13.0003 59.4029 3 9 294
1907313N12062 1907 60 NI AS NOT_NAMED 1907-11-10 00:00:00 TS 13.2282 58.8550 main 481 451 _________OP___ -1 13.3000 58.7000 TC 45 13.1565 59.0100 3 7 298
1907313N12062 1907 60 NI AS NOT_NAMED 1907-11-10 03:00:00 TS 13.3574 58.6274 main 453 442 _________PO___ -1 13.4149 58.5549 TC 45 13.3000 58.7000 3 4 303
1907313N12062 1907 60 NI AS NOT_NAMED 1907-11-10 06:00:00 TS 13.4529 58.5047 main 445 434 _________OP___ -1 13.5000 58.5000 TC 45 13.4059 58.5094 3 3 310
1907313N12062 1907 60 NI AS NOT_NAMED 1907-11-10 09:00:00 TS 13.5460 58.4011 main 434 426 _________PP___ -1 13.5925 58.4000 TC 45 13.4996 58.4022 3 3 318
1907313N12062 1907 60 NI AS NOT_NAMED 1907-11-10 12:00:00 TS 13.6467 58.3219 main 426 426 _________OP___ -1 13.7000 58.3000 TC 45 13.5935 58.3438 3 3 327
1907313N12062 1907 60 NI AS NOT_NAMED 1907-11-10 15:00:00 TS 13.7713 58.2463 main 422 422 _________PO___ -1 13.8425 58.1925 TC 45 13.7000 58.3000 3 3 329
1907313N12062 1907 60 NI AS NOT_NAMED 1907-11-10 18:00:00 TS 13.9219 58.1488 main 416 416 _________OP___ -1 14.0000 58.1000 TC 45 13.8438 58.1976 3 4 331
1907313N12062 1907 60 NI AS NOT_NAMED 1907-11-10 21:00:00 TS 14.0787 58.0663 main 424 414 _________PP___ -1 14.1575 58.0275 TC 45 14.0000 58.1051 3 3 338
1907313N12062 1907 60 NI AS NOT_NAMED 1907-11-11 00:00:00 TS 14.2281 58.0175 main 419 419 _________OP___ -1 14.3000 58.0000 TC 45 14.1563 58.0351 3 3 353
1907313N12062 1907 60 NI AS NOT_NAMED 1907-11-11 03:00:00 TS 14.3538 58.0175 main 426 426 _________PO___ -1 14.4075 58.0350 TC 45 14.3000 58.0000 3 2 10
1907313N12062 1907 60 NI AS NOT_NAMED 1907-11-11 06:00:00 TS 14.4552 58.0570 main 421 421 _________OP___ -1 14.5000 58.1000 TC 45 14.4103 58.0140 3 2 25
1907313N12062 1907 60 NI AS NOT_NAMED 1907-11-11 09:00:00 TS 14.5537 58.1062 main 411 411 _________PP___ -1 14.6000 58.1500 TC 45 14.5075 58.0624 3 2 28
1907313N12062 1907 60 NI AS NOT_NAMED 1907-11-11 12:00:00 TS 14.6505 58.1648 main 406 406 _________OP___ -1 14.7000 58.2000 TC 45 14.6009 58.1296 3 2 31
1907313N12062 1907 60 NI AS NOT_NAMED 1907-11-11 15:00:00 TS 14.7462 58.2250 main 406 396 _________PO___ -1 14.7925 58.2500 TC 45 14.7000 58.2000 3 2 27
1907313N12062 1907 60 NI AS NOT_NAMED 1907-11-11 18:00:00 TS 14.8528 58.2730 main 392 382 _________OP___ -1 14.9000 58.3000 TC 45 14.8056 58.2460 3 2 21
1907313N12062 1907 60 NI AS NOT_NAMED 1907-11-11 21:00:00 TS 14.9775 58.3176 main 382 373 _________PP___ -1 15.0350 58.3425 TC 45 14.9200 58.2926 3 3 19
1907313N12062 1907 60 NI AS NOT_NAMED 1907-11-12 00:00:00 TS 15.1247 58.3714 main 379 360 _________OP___ -1 15.2000 58.4000 TC 45 15.0494 58.3429 3 3 22
1907313N12062 1907 60 NI AS NOT_NAMED 1907-11-12 03:00:00 TS 15.2963 58.4500 main 360 349 _________PO___ -1 15.3925 58.5000 TC 41 15.2000 58.4000 3 4 23
1907313N12062 1907 60 NI AS NOT_NAMED 1907-11-12 06:00:00 TS 15.4892 58.5299 main 349 339 _________OP___ -1 15.6000 58.6000 TC 37 15.3784 58.4597 3 4 18
1907313N12062 1907 60 NI AS NOT_NAMED 1907-11-12 09:00:00 TS 15.6887 58.5888 main 339 323 _________PP___ -1 15.8000 58.6501 TC 33 15.5775 58.5276 3 4 17
1907313N12062 1907 60 NI AS NOT_NAMED 1907-11-12 12:00:00 TS 15.8939 58.6533 main 331 316 _________OP___ -1 16.0000 58.7000 TC 30 15.7878 58.6066 3 4 20
1907313N12062 1907 60 NI AS NOT_NAMED 1907-11-12 15:00:00 TS 16.1000 58.7425 main 316 308 _________PO___ -1 16.2000 58.7850 TC 30 16.0000 58.7000 1 4 25
1907313N12062 1907 60 NI AS NOT_NAMED 1907-11-12 18:00:00 TS 16.2895 58.8483 main 308 307 _________OP___ -1 16.4000 58.9000 TC 30 16.2066 58.8096 1 4 30
1907313N12062 1907 60 NI AS NOT_NAMED 1907-11-12 21:00:00 TS 16.4846 58.9763 main 307 291 _________PP___ -1 16.6000 59.0424 TC 30 16.4076 58.9323 1 5 33
1907313N12062 1907 60 NI AS NOT_NAMED 1907-11-13 00:00:00 TS 16.6698 59.1092 main 291 287 _________OP___ -1 16.8000 59.2000 TC 30 16.6048 59.0638 1 4 34
1907313N12062 1907 60 NI AS NOT_NAMED 1907-11-13 03:00:00 NR 16.8000 59.2000 main 287 __________O___ -1 TC 16.8000 59.2000 1 3 35

About IBTrACS Database

This database is a web-friendly format of International Best Track Archive for Climate Stewardship (IBTrACS), a global best track data archive curated by NOAA dating back to 1842.

Updated: 2021-11-26